Hauptseite
METAR-TAF:

METAR-TAF

Flughäfen :

Altenstadt, Deutschland

Heeresflugplatz Altenstadt

Breite: 47-50N, Länge: 010-52E, Höhe: 739 m

Beobachtung

Neuester Wetterbericht von vor 16 Minuten, um 15:20 UTC
Wind 7 kt aus West/Nordwest
Temperatur 23°C
Luftfeuchtigkeit 38%
Luftdruck 1019 hPa

METAR: ETHA 211520Z AUTO 29007KT //// // ////// 23/08 Q1019 ///

Zeit: 17:36 (15:36 UTC)

Prognose

Neuester Wetterbericht von vor 30 Stunden und 16 Minuten, um 09:20 UTC
Gültige Prognose vom 20 um 08 UTC bis 20 um 17 UTC
Wind 3 kt aus unterschiedlichen Richtungen
Sichtweite: 1020 m
Leicht bewölkt in der Höhe von 5000 ft
Aufgelockert bewölkt in der Höhe von 30000 ft

TAF: ETHA 200920Z 2008/2017 VRB03KT 9999 NSW FEW050 SCT300 CANCEL 1020

Wetterbeobachtungen und Prognosen von mehr als 4000 Flughäfen (METAR und TAF Bericht).

Die verfügbaren Stationen werden durch gelbe und rote Markierungen auf der Karte dargestellt.

Führen Sie die Maus auf sie, um den Namen der Station zu sehen.

Darauf klicken, um die Beobachtung von Wetterbeobachtungen und Prognosen zu sehen.

Um die Karte zu ändern : klicken Sie auf den grünen Tasten mit einem schwarzen Kreuz Zum Vergrößern, auf den grünen Button mit einem Gedankenstrich zu verkleinern, oder auf die grünen Pfeile für benachbarte Karten.


METAR-TAF: